LLIB/RPN METAR and TAF weather

Enter ICAO airport designator
Station Type Date Time Source
LLIB METAR 2019/12/06 13:50 UTC NOAA

LLIB 061350Z 33011KT CAVOK 16/06 Q1017 RMK SCT070


Station Type Date Time Source
LLIB Decoded METAR 2019/12/06 13:50 UTC NOAA

Galilee / Pina, Israel (LLIB) 32-58-48N 035-34-12E
Dec 06, 2019 - 08:50 AM EST / 2019.12.06 1350 UTC
Wind: from the NNW (330 degrees) at 13 MPH (11 KT):0
Visibility: greater than 7 mile(s):0
Temperature: 60 F (16 C)
Dew Point: 42 F (6 C)
Relative Humidity: 51%
Pressure (altimeter): 30.03 in. Hg (1017 hPa)
ob: LLIB 061350Z 33011KT CAVOK 16/06 Q1017 RMK SCT070
cycle: 14

Station Type Date Time Source
LLIB TAF 2019/12/06 12:24 UTC NOAA

TAF TAF LLIB 061116Z 0612/0712 33010KT 9999 FEW040
BECMG 0618/0621 VRB04KT
BECMG 0706/0709 32008KT PROB30 0709/0712 17005KT TX18/0612Z TN07/0704Z

Example: see airport list